Time;durP1;ratioP1;P1;durP2;ratioP2;P2;SDS_P1;SDS_P2;PMS_P1;PMS_P2;Temp;Humidity;BMP_temperature;BMP_pressure;BME280_temperature;BME280_humidity;BME280_pressure;Samples;Min_cycle;Max_cycle;Signal;HPM_P1;HPM_P2
2021/09/14 00:00:22;;;;;;;1053.78;966.67;;;;;;;10.78;65.28;93604.88;5091453;28;20039;-45
2021/09/14 00:02:49;;;;;;;1029.05;943.95;;;;;;;10.87;65.01;93615.41;5091435;28;20089;-49
2021/09/14 00:05:14;;;;;;;1052.95;966.65;;;;;;;10.80;65.06;93618.13;5091112;28;20028;-46
2021/09/14 00:07:40;;;;;;;1040.90;957.65;;;;;;;10.87;65.43;93620.19;5090871;28;20081;-48
2021/09/14 00:10:06;;;;;;;1040.38;955.70;;;;;;;10.88;64.27;93621.66;5091051;28;20032;-48
2021/09/14 00:12:32;;;;;;;1040.70;958.67;;;;;;;10.80;64.58;93624.41;5091285;28;20032;-50
2021/09/14 00:14:57;;;;;;;1045.72;961.60;;;;;;;10.73;64.82;93621.59;5095198;28;20100;-49
2021/09/14 00:17:23;;;;;;;1019.35;937.80;;;;;;;10.73;64.89;93611.28;5090120;28;20518;-47
2021/09/14 00:19:48;;;;;;;1045.95;960.97;;;;;;;10.57;64.78;93616.00;5091015;28;20027;-46
2021/09/14 00:22:13;;;;;;;1066.63;981.22;;;;;;;10.63;64.53;93622.09;5091175;28;20031;-49
2021/09/14 00:24:39;;;;;;;1031.15;947.38;;;;;;;10.57;65.31;93621.53;5090808;28;20030;-47
2021/09/14 00:27:04;;;;;;;1022.42;939.33;;;;;;;10.49;65.46;93617.25;5090966;28;20052;-46
2021/09/14 00:29:30;;;;;;;1037.80;953.53;;;;;;;10.49;65.62;93617.25;5094625;28;20480;-46
2021/09/14 00:31:55;;;;;;;1027.63;945.42;;;;;;;10.47;65.78;93622.56;5110995;27;20024;-46
2021/09/14 00:34:21;;;;;;;1015.65;934.53;;;;;;;10.44;66.36;93613.34;5111143;27;20023;-46
2021/09/14 00:36:46;;;;;;;1042.03;958.65;;;;;;;10.44;66.19;93618.13;5111054;28;20024;-48
2021/09/14 00:39:12;;;;;;;1036.10;954.47;;;;;;;10.48;66.22;93616.50;5110872;28;20034;-45
2021/09/14 00:41:37;;;;;;;1032.35;952.05;;;;;;;10.45;65.98;93612.09;5110917;28;20026;-47
2021/09/14 00:44:03;;;;;;;1034.40;953.05;;;;;;;10.51;65.39;93614.69;5110893;28;20110;-47
2021/09/14 00:46:29;;;;;;;1030.13;948.10;;;;;;;10.44;65.63;93610.59;5100811;28;20082;-45
2021/09/14 00:48:55;;;;;;;1028.82;945.88;;;;;;;10.38;64.80;93615.53;5090719;28;20024;-46
2021/09/14 00:51:21;;;;;;;1014.25;932.33;;;;;;;10.30;65.02;93614.75;5090731;28;20032;-47
2021/09/14 00:53:47;;;;;;;1015.35;935.38;;;;;;;10.25;65.01;93621.16;5100724;28;20032;-48
2021/09/14 00:56:16;;;;;;;1028.72;946.65;;;;;;;10.18;65.21;93616.31;5105298;28;20036;-47
2021/09/14 00:58:42;;;;;;;1031.00;946.80;;;;;;;10.14;65.17;93621.47;5100914;28;20031;-46
2021/09/14 01:01:08;;;;;;;1018.05;935.58;;;;;;;10.12;65.29;93615.75;5099523;28;20027;-45
2021/09/14 01:03:34;;;;;;;1026.00;945.50;;;;;;;10.08;64.78;93629.13;5100030;28;20505;-46
2021/09/14 01:06:01;;;;;;;1042.03;958.28;;;;;;;9.94;65.59;93625.69;5109367;28;20504;-50
2021/09/14 01:08:27;;;;;;;1023.13;938.13;;;;;;;9.90;65.61;93632.84;5110766;28;20031;-45
2021/09/14 01:10:52;;;;;;;1032.13;950.53;;;;;;;9.79;66.15;93602.78;5108532;28;20432;-46
2021/09/14 01:13:18;;;;;;;1044.72;960.78;;;;;;;9.79;66.43;93620.06;5105626;28;20286;-45
2021/09/14 01:15:43;;;;;;;1038.40;954.95;;;;;;;9.92;66.10;93622.00;5103247;28;20475;-48
2021/09/14 01:18:08;;;;;;;1013.38;933.95;;;;;;;9.92;66.01;93619.25;5090066;28;20036;-47
2021/09/14 01:20:34;;;;;;;999.78;920.80;;;;;;;9.76;66.64;93601.13;5090171;28;20415;-48
2021/09/14 01:22:59;;;;;;;1021.97;941.58;;;;;;;9.87;65.96;93615.34;5089749;28;20408;-47
2021/09/14 01:25:25;;;;;;;1049.53;966.83;;;;;;;9.64;66.45;93605.41;5090244;28;20507;-44
2021/09/14 01:27:51;;;;;;;1024.63;942.13;;;;;;;9.74;67.14;93628.50;5089966;28;20028;-45
2021/09/14 01:30:19;;;;;;;1045.95;962.60;;;;;;;9.83;66.34;93628.00;5104652;28;20027;-45
2021/09/14 01:32:47;;;;;;;1022.70;938.60;;;;;;;9.77;66.05;93622.63;5114682;28;20058;-44
2021/09/14 01:35:21;;;;;;;1041.38;957.47;;;;;;;9.81;66.63;93625.06;5110501;27;20032;-45
2021/09/14 01:37:47;;;;;;;1035.85;953.60;;;;;;;9.75;66.51;93624.44;5093979;28;20020;-46
2021/09/14 01:40:13;;;;;;;1035.38;951.13;;;;;;;9.73;66.45;93627.75;5094204;28;20077;-46
2021/09/14 01:42:38;;;;;;;1099.32;993.33;;;;;;;9.70;65.82;93619.81;5093939;28;20027;-48
2021/09/14 01:45:05;;;;;;;1028.72;945.60;;;;;;;9.64;65.85;93616.44;5094090;28;20038;-44
2021/09/14 01:47:31;;;;;;;1014.85;933.05;;;;;;;9.74;65.83;93611.94;5093931;28;20066;-45
2021/09/14 01:49:56;;;;;;;1026.68;944.55;;;;;;;9.67;65.28;93616.13;5104590;28;20027;-48
2021/09/14 01:52:22;;;;;;;1020.90;939.58;;;;;;;9.64;65.27;93608.91;5114038;28;20023;-46
2021/09/14 01:54:50;;;;;;;1037.40;953.40;;;;;;;9.58;65.10;93613.84;5114076;28;20024;-47
2021/09/14 01:57:20;;;;;;;1025.82;945.55;;;;;;;9.61;65.44;93623.78;5113960;28;20493;-44
2021/09/14 01:59:46;;;;;;;1007.30;929.10;;;;;;;9.55;65.53;93614.91;5113858;28;20023;-46
2021/09/14 02:02:22;;;;;;;1021.72;939.47;;;;;;;9.49;66.07;93614.28;5113911;28;20034;-47
2021/09/14 03:01:09;;;;;;;1027.72;944.88;;;;;;;8.79;66.08;93638.16;5112892;28;20035;-48
2021/09/14 03:03:40;;;;;;;1033.38;950.95;;;;;;;8.74;66.90;93644.53;5112971;28;20035;-49
2021/09/14 03:06:06;;;;;;;1029.60;948.78;;;;;;;8.68;67.16;93643.91;5112771;28;20019;-47
2021/09/14 03:08:33;;;;;;;1039.70;956.00;;;;;;;8.70;66.79;93633.13;5112636;28;20035;-49
2021/09/14 03:11:07;;;;;;;1048.32;963.80;;;;;;;8.78;66.97;93633.19;5112601;28;20080;-47
2021/09/14 03:13:33;;;;;;;1030.70;947.80;;;;;;;8.75;66.82;93637.03;5112629;28;20510;-47
2021/09/14 03:15:59;;;;;;;1029.38;945.50;;;;;;;8.63;67.21;93636.50;5102848;28;20024;-49
2021/09/14 03:18:24;;;;;;;1043.80;960.70;;;;;;;8.58;67.26;93639.34;5091825;28;20055;-47
2021/09/14 03:20:50;;;;;;;1011.97;929.95;;;;;;;8.60;67.32;93643.06;5091934;28;20028;-48
2021/09/14 03:23:15;;;;;;;1030.95;950.47;;;;;;;8.53;67.31;93637.47;5091951;28;20031;-48
2021/09/14 03:25:40;;;;;;;1048.45;965.65;;;;;;;8.43;67.51;93631.66;5091885;28;20038;-47
2021/09/14 03:28:06;;;;;;;1046.07;960.83;;;;;;;8.46;67.79;93627.09;5091770;28;20021;-46
2021/09/14 03:30:31;;;;;;;1050.13;965.08;;;;;;;8.47;68.11;93636.84;5104699;28;20024;-47
2021/09/14 03:32:57;;;;;;;1053.10;968.63;;;;;;;8.45;68.43;93640.13;5112086;28;20023;-46
2021/09/14 03:35:22;;;;;;;1028.72;945.42;;;;;;;8.45;68.43;93639.38;5112299;28;20023;-47
2021/09/14 03:37:48;;;;;;;1049.50;965.63;;;;;;;8.37;68.59;93645.53;5111286;28;20016;-48
2021/09/14 03:40:13;;;;;;;1038.20;954.35;;;;;;;8.34;68.03;93646.56;5111612;28;20630;-48
2021/09/14 03:42:39;;;;;;;1036.55;953.80;;;;;;;8.24;67.89;93650.25;5111965;28;20080;-47
2021/09/14 03:45:04;;;;;;;1028.55;944.53;;;;;;;8.36;67.61;93654.28;5112104;28;20641;-46
2021/09/14 03:47:30;;;;;;;1052.97;963.78;;;;;;;8.43;67.55;93653.66;5112048;28;20404;-47
2021/09/14 03:49:56;;;;;;;1017.15;937.05;;;;;;;8.36;67.67;93648.78;5112069;28;20511;-47
2021/09/14 03:52:21;;;;;;;1031.63;950.45;;;;;;;8.40;67.69;93654.75;5108286;28;20020;-50
2021/09/14 03:54:46;;;;;;;1015.60;933.50;;;;;;;8.43;67.86;93648.16;5111990;28;20446;-46
2021/09/14 03:57:12;;;;;;;1031.03;949.78;;;;;;;8.43;67.49;93650.91;5110076;28;20493;-47
2021/09/14 03:59:40;;;;;;;1036.95;953.15;;;;;;;8.45;67.06;93653.88;5090935;28;20050;-46
2021/09/14 04:02:13;;;;;;;1058.40;969.75;;;;;;;8.28;67.00;93662.44;5089671;28;20023;-46
2021/09/14 04:09:49;;;;;;;1043.68;958.95;;;;;;;8.19;67.03;93662.09;5089863;28;20042;-46
2021/09/14 04:12:14;;;;;;;1042.20;957.42;;;;;;;8.11;67.71;93662.00;5089594;28;20035;-46
2021/09/14 04:14:40;;;;;;;1047.13;962.58;;;;;;;7.98;68.48;93652.97;5089587;28;20110;-48
2021/09/14 04:17:05;;;;;;;1022.30;939.20;;;;;;;8.00;69.13;93667.69;5089183;28;20048;-46
2021/09/14 04:19:31;;;;;;;1019.53;936.63;;;;;;;8.17;68.40;93670.88;5091076;28;20033;-47
2021/09/14 04:21:57;;;;;;;1030.03;946.33;;;;;;;8.26;68.63;93673.25;5090815;28;20542;-46
2021/09/14 04:24:22;;;;;;;1015.45;933.22;;;;;;;8.25;67.99;93671.75;5090793;28;20032;-46
2021/09/14 04:26:48;;;;;;;1041.28;957.38;;;;;;;8.21;67.60;93673.31;5090704;28;20078;-49
2021/09/14 04:29:13;;;;;;;1041.30;953.35;;;;;;;8.28;67.26;93678.22;5090623;28;20081;-48
2021/09/14 04:31:39;;;;;;;1057.28;972.05;;;;;;;8.26;67.07;93678.00;5091000;28;20019;-47
2021/09/14 04:34:04;;;;;;;1045.72;961.15;;;;;;;8.31;66.99;93690.91;5090905;28;20532;-48
2021/09/14 04:36:30;;;;;;;1034.63;953.13;;;;;;;8.28;66.93;93680.97;5090754;28;20101;-48
2021/09/14 04:38:55;;;;;;;1068.97;983.80;;;;;;;8.28;67.35;93675.47;5090566;28;20036;-48
2021/09/14 04:41:21;;;;;;;1037.05;953.75;;;;;;;8.25;68.05;93682.00;5090310;28;20028;-45
2021/09/14 04:43:46;;;;;;;1029.25;947.28;;;;;;;8.27;67.62;93682.25;5090463;28;20035;-46
2021/09/14 04:46:12;;;;;;;1028.97;945.03;;;;;;;8.26;67.60;93683.50;5090781;28;20020;-46
2021/09/14 04:48:38;;;;;;;1025.38;939.90;;;;;;;8.23;67.22;93682.50;5090705;28;20098;-46
2021/09/14 04:51:03;;;;;;;1026.32;946.17;;;;;;;8.28;67.45;93686.47;5090757;28;20508;-45
2021/09/14 04:53:28;;;;;;;1009.22;929.90;;;;;;;8.38;67.47;93693.03;5090347;28;20023;-47
2021/09/14 04:55:54;;;;;;;1017.17;937.75;;;;;;;8.37;67.44;93691.56;5089456;28;20020;-47
2021/09/14 04:58:19;;;;;;;1022.58;942.17;;;;;;;8.43;67.16;93689.44;5090626;28;20063;-47
2021/09/14 05:00:45;;;;;;;1040.95;958.83;;;;;;;8.48;67.11;93694.09;5089898;28;20502;-46
2021/09/14 05:03:11;;;;;;;1036.38;953.33;;;;;;;8.56;67.63;93697.69;5091388;28;20469;-45
2021/09/14 05:05:37;;;;;;;1020.20;936.85;;;;;;;8.60;67.61;93697.38;5090488;28;20028;-46
2021/09/14 05:08:02;;;;;;;1019.80;938.90;;;;;;;8.64;67.52;93690.28;5090251;28;20519;-46
2021/09/14 05:10:29;;;;;;;1013.33;932.50;;;;;;;8.59;68.50;93702.16;5090476;28;20016;-47
2021/09/14 05:12:54;;;;;;;1073.18;979.30;;;;;;;8.64;69.24;93701.28;5090174;28;20035;-45
2021/09/14 05:15:20;;;;;;;1033.15;950.10;;;;;;;8.77;68.97;93692.28;5090092;28;20019;-45
2021/09/14 05:17:45;;;;;;;1046.32;959.47;;;;;;;8.81;69.30;93709.97;5089953;28;20060;-46
2021/09/14 05:20:13;;;;;;;1008.65;927.08;;;;;;;8.79;69.73;93706.25;5090228;28;20032;-47
2021/09/14 05:22:39;;;;;;;999.90;921.13;;;;;;;8.82;70.79;93707.94;5090106;28;20058;-46
2021/09/14 05:25:05;;;;;;;1045.00;962.78;;;;;;;9.02;70.51;93705.28;5090368;28;20064;-46
2021/09/14 05:27:31;;;;;;;1046.50;959.05;;;;;;;9.14;70.83;93708.53;5089980;28;20584;-47
2021/09/14 05:29:56;;;;;;;1038.32;952.88;;;;;;;9.25;71.45;93704.81;5097790;28;20039;-45
2021/09/14 05:32:22;;;;;;;1045.63;956.88;;;;;;;9.43;70.68;93712.91;5110545;28;20028;-46
2021/09/14 05:34:48;;;;;;;1008.05;923.00;;;;;;;9.64;70.22;93705.41;5105782;28;20547;-46
2021/09/14 05:37:14;;;;;;;1034.55;949.13;;;;;;;9.72;70.88;93714.47;5090009;28;20047;-46
2021/09/14 05:39:40;;;;;;;1066.40;974.15;;;;;;;9.83;70.89;93711.47;5108889;28;20032;-45
2021/09/14 05:42:09;;;;;;;1067.57;975.88;;;;;;;9.93;71.00;93720.78;5110250;28;20019;-47
2021/09/14 05:44:35;;;;;;;1066.15;976.00;;;;;;;10.10;70.56;93703.78;5110479;28;20072;-47
2021/09/14 05:47:02;;;;;;;1059.70;970.35;;;;;;;10.21;70.77;93700.03;5110126;28;20028;-48
2021/09/14 05:49:28;;;;;;;1077.00;986.35;;;;;;;10.37;69.85;93713.41;5110080;28;20024;-47
2021/09/14 05:51:54;;;;;;;1073.72;983.35;;;;;;;10.56;70.37;93707.66;5110426;28;20027;-47
2021/09/14 05:54:19;;;;;;;1079.28;990.85;;;;;;;10.67;69.74;93707.38;5110187;28;20057;-47
2021/09/14 05:56:44;;;;;;;1064.65;975.28;;;;;;;10.72;70.33;93709.22;5110104;28;20023;-46
2021/09/14 05:59:10;;;;;;;1096.70;999.67;;;;;;;10.81;69.80;93705.97;5110049;28;20031;-45
2021/09/14 06:01:35;;;;;;;1078.32;988.65;;;;;;;10.92;70.04;93707.69;5109911;28;20016;-47
2021/09/14 06:04:01;;;;;;;1052.88;965.90;;;;;;;11.03;69.81;93699.81;5110002;28;20020;-47
2021/09/14 06:06:26;;;;;;;1091.20;996.97;;;;;;;11.17;68.66;93708.72;5109908;28;20084;-46
2021/09/14 06:08:52;;;;;;;1071.63;981.40;;;;;;;11.19;68.04;93689.59;5110011;28;20073;-46
2021/09/14 06:11:17;;;;;;;1062.13;968.88;;;;;;;11.45;67.99;93705.88;5109962;28;20035;-46
2021/09/14 06:13:43;;;;;;;1061.95;971.25;;;;;;;11.62;68.29;93702.63;5109057;28;20023;-46
2021/09/14 06:16:08;;;;;;;1054.25;964.58;;;;;;;11.59;67.34;93685.09;5102849;28;20400;-46
2021/09/14 06:18:34;;;;;;;1052.50;959.88;;;;;;;11.95;67.30;93705.09;5093013;28;20094;-46
2021/09/14 06:20:59;;;;;;;1054.32;963.45;;;;;;;12.25;66.98;93707.16;5093415;28;20028;-47
2021/09/14 06:23:25;;;;;;;1061.95;968.40;;;;;;;12.45;66.54;93697.19;5093074;28;20030;-47
2021/09/14 06:25:50;;;;;;;1035.18;945.28;;;;;;;12.65;65.85;93701.75;5093477;28;20020;-48
2021/09/14 06:28:16;;;;;;;1035.20;943.70;;;;;;;12.91;65.17;93695.81;5093218;28;20568;-46
2021/09/14 06:30:41;;;;;;;1040.47;945.63;;;;;;;13.11;64.04;93699.66;5107312;28;20049;-47
2021/09/14 06:33:07;;;;;;;1058.80;966.15;;;;;;;13.27;63.03;93701.09;5113246;28;20023;-47
2021/09/14 06:35:32;;;;;;;1044.50;951.33;;;;;;;13.42;62.94;93706.59;5113119;28;20028;-47
2021/09/14 06:37:58;;;;;;;1051.40;955.95;;;;;;;13.64;62.17;93700.19;5113247;28;20026;-47
2021/09/14 06:40:23;;;;;;;1046.97;949.30;;;;;;;14.07;61.68;93704.56;5113499;28;20107;-46
2021/09/14 06:42:49;;;;;;;1068.30;967.67;;;;;;;14.88;59.89;93710.03;5113417;28;20484;-47
2021/09/14 06:45:14;;;;;;;1053.05;945.33;;;;;;;15.34;58.60;93710.28;5113140;28;20480;-47
2021/09/14 06:47:40;;;;;;;1026.93;916.33;;;;;;;15.56;57.93;93705.78;5111670;28;20057;-47
2021/09/14 06:50:06;;;;;;;1011.70;901.22;;;;;;;15.87;57.67;93706.88;5113241;28;20024;-45
2021/09/14 06:52:31;;;;;;;1032.85;867.47;;;;;;;16.19;56.07;93712.19;5113245;28;20031;-46
2021/09/14 06:54:57;;;;;;;1095.82;822.70;;;;;;;16.59;53.92;93712.50;5113146;28;20024;-47
2021/09/14 06:57:23;;;;;;;1266.22;883.03;;;;;;;17.17;52.71;93709.84;5112858;28;20012;-47
2021/09/14 06:59:48;;;;;;;1414.15;965.00;;;;;;;17.64;50.85;93708.41;5113073;28;20030;-47
2021/09/14 07:02:14;;;;;;;1497.20;999.90;;;;;;;18.39;49.36;93714.41;5112721;28;20081;-48
2021/09/14 07:04:40;;;;;;;1546.88;999.90;;;;;;;19.76;46.50;93716.00;5112773;28;20075;-47
2021/09/14 07:07:05;;;;;;;1515.95;999.90;;;;;;;21.78;43.03;93704.47;5112827;28;20027;-47
2021/09/14 07:09:31;;;;;;;1406.30;999.90;;;;;;;23.94;38.01;93713.13;5112947;28;20027;-48
2021/09/14 07:11:56;;;;;;;1189.63;999.90;;;;;;;25.80;34.45;93694.03;5112738;28;20107;-46
2021/09/14 07:14:22;;;;;;;1100.72;999.90;;;;;;;27.53;30.79;93709.28;5112929;28;20019;-44
2021/09/14 07:16:47;;;;;;;1058.63;970.53;;;;;;;29.04;28.05;93709.25;5095830;28;20043;-44
2021/09/14 07:19:13;;;;;;;991.70;918.22;;;;;;;30.44;25.10;93713.78;5092479;28;20020;-44
2021/09/14 07:21:38;;;;;;;888.28;827.90;;;;;;;31.54;23.05;93712.72;5091959;28;20413;-45
2021/09/14 07:24:04;;;;;;;891.10;827.78;;;;;;;32.49;22.54;93715.19;5092306;28;20073;-46
2021/09/14 07:26:30;;;;;;;810.50;755.85;;;;;;;33.69;20.80;93715.50;5092225;28;20020;-45
2021/09/14 07:28:55;;;;;;;713.38;668.28;;;;;;;34.65;20.03;93712.22;5092245;28;20038;-47
2021/09/14 07:31:21;;;;;;;657.40;617.13;;;;;;;35.55;18.57;93717.84;5111376;28;20457;-46
2021/09/14 07:33:46;;;;;;;609.58;572.88;;;;;;;35.92;17.35;93712.94;5112146;28;20028;-46
2021/09/14 07:36:12;;;;;;;607.30;570.80;;;;;;;36.08;16.60;93713.03;5112451;28;20030;-48
2021/09/14 07:38:40;;;;;;;588.50;552.90;;;;;;;36.10;16.60;93715.91;5112041;27;20047;-47
2021/09/14 07:41:06;;;;;;;585.20;550.17;;;;;;;36.15;16.46;93715.19;5112287;28;20024;-47
2021/09/14 07:43:32;;;;;;;533.33;501.42;;;;;;;36.37;15.86;93717.38;5110756;28;20049;-49
2021/09/14 07:45:57;;;;;;;544.22;511.52;;;;;;;36.46;15.34;93715.97;5111895;28;20024;-45
2021/09/14 07:48:23;;;;;;;546.50;515.28;;;;;;;36.84;15.83;93724.59;5111875;28;20028;-45
2021/09/14 07:50:48;;;;;;;486.67;459.08;;;;;;;36.97;15.72;93714.56;5112042;27;20091;-46
2021/09/14 07:53:14;;;;;;;456.77;431.25;;;;;;;37.34;15.05;93720.25;5111789;28;20118;-48
2021/09/14 07:55:39;;;;;;;470.48;442.90;;;;;;;37.63;14.67;93718.75;5111894;28;20020;-46
2021/09/14 07:58:05;;;;;;;453.88;428.13;;;;;;;38.08;14.58;93713.50;5111952;28;20077;-46
2021/09/14 08:00:31;;;;;;;344.33;326.90;;;;;;;38.07;14.82;93712.81;5111452;28;20077;-47
2021/09/14 08:02:57;;;;;;;341.98;323.88;;;;;;;37.72;14.75;93717.28;5110521;28;20023;-48
2021/09/14 08:05:27;;;;;;;338.67;319.85;;;;;;;37.87;15.05;93690.56;5110814;28;20024;-48
2021/09/14 08:07:53;;;;;;;351.50;331.05;;;;;;;38.64;14.70;93716.06;5111242;28;20118;-47
2021/09/14 08:10:18;;;;;;;333.77;316.08;;;;;;;39.12;13.99;93717.84;5111296;28;20022;-47
2021/09/14 08:12:44;;;;;;;313.08;296.55;;;;;;;39.67;13.57;93718.03;5110594;28;20027;-47
2021/09/14 08:15:10;;;;;;;294.70;279.52;;;;;;;40.19;12.96;93708.72;5107309;28;20070;-47
2021/09/14 08:17:35;;;;;;;291.30;275.90;;;;;;;40.68;12.84;93712.38;5089103;28;20653;-47
2021/09/14 08:20:03;;;;;;;286.83;271.75;;;;;;;41.04;11.93;93710.38;5089534;28;20130;-47
2021/09/14 08:22:28;;;;;;;262.23;249.30;;;;;;;39.82;12.16;93699.06;5089559;28;20032;-46
2021/09/14 08:24:54;;;;;;;265.15;252.00;;;;;;;40.10;12.92;93708.13;5089606;28;20031;-48
2021/09/14 08:27:19;;;;;;;260.73;247.93;;;;;;;40.83;12.96;93698.38;5100569;28;20023;-47
2021/09/14 08:29:45;;;;;;;256.67;243.57;;;;;;;41.09;12.51;93688.53;5105225;28;20023;-47
2021/09/14 08:32:10;;;;;;;222.35;211.48;;;;;;;41.41;12.13;93688.69;5090680;28;20028;-48
2021/09/14 08:34:36;;;;;;;227.40;215.95;;;;;;;41.50;11.48;93692.88;5090658;28;20034;-47
2021/09/14 08:37:02;;;;;;;226.32;215.02;;;;;;;41.34;11.81;93690.28;5090220;28;20012;-48
2021/09/14 08:39:27;;;;;;;203.13;193.23;;;;;;;41.68;11.33;93683.13;5090816;28;20028;-46
2021/09/14 08:41:53;;;;;;;208.80;198.45;;;;;;;42.21;10.77;93671.84;5090512;28;20462;-47
2021/09/14 08:44:19;;;;;;;208.18;197.55;;;;;;;42.19;10.82;93669.00;5089600;28;20035;-48
2021/09/14 08:46:44;;;;;;;219.63;208.57;;;;;;;41.15;12.06;93682.66;5090678;28;20409;-48
2021/09/14 08:49:12;;;;;;;186.00;176.93;;;;;;;41.14;11.95;93684.09;5090469;28;20024;-46
2021/09/14 08:51:38;;;;;;;175.63;167.40;;;;;;;41.78;11.08;93685.81;5090241;28;20100;-47
2021/09/14 08:54:04;;;;;;;167.32;159.43;;;;;;;42.14;10.70;93675.66;5090388;28;20178;-47
2021/09/14 08:56:29;;;;;;;151.13;143.98;;;;;;;42.16;10.76;93672.72;5090680;28;20104;-47
2021/09/14 08:59:04;;;;;;;146.20;139.25;;;;;;;42.46;10.40;93677.84;5090573;28;20020;-47
2021/09/14 09:01:31;;;;;;;151.60;144.18;;;;;;;42.29;10.44;93662.25;5089011;28;20042;-46
2021/09/14 09:03:57;;;;;;;162.48;154.77;;;;;;;42.60;10.70;93674.63;5090297;28;20020;-47
2021/09/14 09:06:30;;;;;;;132.98;126.60;;;;;;;42.92;9.85;93670.22;5090571;28;20101;-48
2021/09/14 09:09:13;;;;;;;131.02;124.72;;;;;;;43.14;9.71;93660.94;5090511;28;20115;-47
2021/09/14 09:12:00;;;;;;;120.90;115.13;;;;;;;43.19;9.21;93662.25;5090126;28;20508;-46
2021/09/14 09:14:34;;;;;;;134.18;127.55;;;;;;;43.40;10.33;93668.28;5089759;28;20036;-47
2021/09/14 09:17:11;;;;;;;126.47;120.10;;;;;;;43.64;10.00;93661.78;5089813;28;20127;-47
2021/09/14 09:19:37;;;;;;;87.90;83.53;;;;;;;43.54;9.89;93656.25;5090037;28;20035;-47
2021/09/14 09:22:03;;;;;;;54.88;51.85;;;;;;;43.49;9.85;93664.34;5090429;28;20036;-48
2021/09/14 09:24:29;;;;;;;50.20;47.17;;;;;;;42.75;10.64;93666.28;5090042;28;20034;-46
2021/09/14 09:26:54;;;;;;;44.28;42.17;;;;;;;42.77;10.81;93660.41;5090018;28;20024;-46
2021/09/14 09:29:25;;;;;;;43.78;41.58;;;;;;;42.70;10.83;93656.22;5092488;28;20035;-47
2021/09/14 09:31:51;;;;;;;38.78;36.95;;;;;;;42.90;10.13;93664.47;5110363;28;20569;-47
2021/09/14 09:34:26;;;;;;;40.45;38.30;;;;;;;43.23;10.26;93638.19;5110579;28;20027;-46
2021/09/14 09:37:03;;;;;;;47.85;45.45;;;;;;;43.56;10.00;93650.38;5110703;28;20027;-47
2021/09/14 09:39:50;;;;;;;37.47;35.75;;;;;;;43.05;10.48;93656.09;5110265;28;20023;-46
2021/09/14 09:42:16;;;;;;;45.83;43.55;;;;;;;42.33;11.16;93665.06;5110187;28;20036;-48
2021/09/14 09:44:56;;;;;;;49.08;46.78;;;;;;;41.95;11.13;93652.09;5110284;28;20030;-49
2021/09/14 09:47:22;;;;;;;41.30;38.83;;;;;;;42.02;10.92;93653.38;5110162;28;20161;-49
2021/09/14 09:49:48;;;;;;;33.80;32.03;;;;;;;42.07;11.04;93642.44;5112182;28;20114;-48
2021/09/14 09:52:17;;;;;;;54.67;51.75;;;;;;;41.03;11.15;93648.81;5114522;28;20435;-46
2021/09/14 09:54:44;;;;;;;45.33;42.88;;;;;;;39.73;12.57;93652.19;5114506;28;20088;-48
2021/09/14 09:57:10;;;;;;;67.28;64.10;;;;;;;38.50;14.55;93652.69;5114431;28;20023;-45
2021/09/14 09:59:35;;;;;;;78.60;74.72;;;;;;;39.11;13.29;93644.94;5114300;27;20027;-48
2021/09/14 10:02:27;;;;;;;55.00;52.25;;;;;;;39.94;12.72;93641.06;5114327;28;20586;-47
2021/09/14 10:05:00;;;;;;;57.47;54.58;;;;;;;40.42;12.57;93639.69;5109669;28;20561;-49
2021/09/14 10:07:27;;;;;;;68.43;65.03;;;;;;;40.66;11.89;93637.13;5114009;28;20020;-51
2021/09/14 10:09:55;;;;;;;64.23;60.80;;;;;;;41.37;11.67;93627.91;5113097;28;20030;-49
2021/09/14 10:12:28;;;;;;;58.58;55.63;;;;;;;41.50;11.37;93626.19;5114037;28;21043;-49
2021/09/14 10:14:59;;;;;;;82.15;77.65;;;;;;;41.85;11.11;93623.31;5113195;28;20489;-49
2021/09/14 10:17:26;;;;;;;55.47;52.58;;;;;;;41.70;11.13;93627.25;5092979;28;20539;-49
2021/09/14 10:19:52;;;;;;;32.30;30.47;;;;;;;42.12;10.50;93626.38;5092342;28;20035;-48
2021/09/14 10:22:28;;;;;;;37.90;36.05;;;;;;;42.10;10.76;93627.16;5093207;28;20528;-50
2021/09/14 10:25:01;;;;;;;34.03;32.25;;;;;;;42.20;10.34;93629.09;5093518;28;20117;-49
2021/09/14 10:27:40;;;;;;;35.35;33.47;;;;;;;42.11;10.20;93631.47;5092954;28;20029;-49
2021/09/14 10:30:08;;;;;;;39.78;37.78;;;;;;;42.50;10.85;93624.78;5102089;28;20098;-48
2021/09/14 10:32:37;;;;;;;;;;;;;;;42.26;10.79;93614.44;5114301;28;20042;-47
2021/09/14 10:35:03;;;;;;;33.28;31.55;;;;;;;42.03;11.03;93619.28;5113582;28;19911;-46
2021/09/14 10:37:32;;;;;;;35.70;33.83;;;;;;;42.14;10.42;93617.63;5113417;28;20020;-48
2021/09/14 10:40:14;;;;;;;40.28;37.80;;;;;;;42.00;10.36;93595.41;5113274;28;20500;-49
2021/09/14 10:42:43;;;;;;;35.70;34.00;;;;;;;42.22;10.75;93612.34;5113155;27;20027;-46
2021/09/14 10:45:11;;;;;;;34.40;31.73;;;;;;;42.11;9.70;93613.31;5113214;28;20588;-47
2021/09/14 10:47:39;;;;;;;32.90;31.25;;;;;;;42.50;10.46;93610.25;5113233;28;20089;-46
2021/09/14 10:50:06;;;;;;;40.85;38.85;;;;;;;42.37;10.86;93609.81;5113017;28;20038;-48
2021/09/14 10:52:41;;;;;;;37.58;35.67;;;;;;;41.97;10.27;93605.66;5113309;28;20097;-48
2021/09/14 10:55:14;;;;;;;33.95;32.35;;;;;;;41.64;10.81;93601.28;5112939;28;20412;-49
2021/09/14 10:57:44;;;;;;;36.50;34.80;;;;;;;41.69;10.92;93605.56;5113112;28;20053;-47
2021/09/14 11:00:18;;;;;;;34.65;32.75;;;;;;;42.03;10.65;93596.81;5112462;28;20031;-47
2021/09/14 11:02:54;;;;;;;30.08;28.65;;;;;;;41.52;10.84;93599.34;5113185;28;20080;-48
2021/09/14 11:05:20;;;;;;;32.80;31.13;;;;;;;41.36;10.80;93600.41;5113073;28;20034;-46
2021/09/14 11:07:45;;;;;;;33.08;31.48;;;;;;;40.73;11.76;93597.91;5112674;28;20396;-48
2021/09/14 11:10:12;;;;;;;31.08;28.95;;;;;;;40.97;11.30;93596.78;5112700;28;20515;-47
2021/09/14 11:12:44;;;;;;;26.67;24.13;;;;;;;41.15;10.70;93593.53;5112911;28;20466;-47
2021/09/14 11:15:10;;;;;;;29.70;28.30;;;;;;;40.06;11.65;93598.28;5110191;28;20017;-49
2021/09/14 11:17:36;;;;;;;29.45;27.83;;;;;;;39.07;11.49;93600.94;5091832;28;20138;-46
2021/09/14 11:20:12;;;;;;;25.25;24.05;;;;;;;39.26;11.66;93599.31;5103534;28;20039;-47
2021/09/14 11:22:38;;;;;;;20.63;19.60;;;;;;;39.15;11.84;93592.94;5112791;28;20023;-46
2021/09/14 11:25:05;;;;;;;22.83;21.73;;;;;;;38.53;13.03;93591.34;5112659;28;20035;-47
2021/09/14 11:27:31;;;;;;;18.50;17.42;;;;;;;38.97;12.42;93595.25;5112440;28;20020;-47
2021/09/14 11:29:57;;;;;;;22.75;21.58;;;;;;;38.17;12.55;93588.03;5104900;27;20517;-46
2021/09/14 11:32:25;;;;;;;16.95;15.43;;;;;;;38.20;12.58;93584.41;5092215;28;20404;-48
2021/09/14 11:34:52;;;;;;;17.80;16.90;;;;;;;38.23;12.58;93582.19;5091775;28;20120;-47
2021/09/14 11:37:28;;;;;;;17.02;16.13;;;;;;;37.85;12.89;93583.22;5091992;28;20024;-46
2021/09/14 11:39:53;;;;;;;18.25;17.33;;;;;;;37.30;13.49;93582.72;5091986;28;20030;-46
2021/09/14 11:42:20;;;;;;;16.67;15.68;;;;;;;36.87;13.03;93582.16;5091623;28;20015;-47
2021/09/14 11:44:46;;;;;;;19.23;18.25;;;;;;;36.64;13.71;93586.53;5091967;28;20024;-46
2021/09/14 11:47:11;;;;;;;19.83;18.83;;;;;;;36.88;14.59;93568.47;5091771;28;20568;-45
2021/09/14 11:49:37;;;;;;;26.40;24.58;;;;;;;37.04;14.00;93579.94;5091496;28;20020;-47
2021/09/14 11:52:04;;;;;;;25.15;23.83;;;;;;;36.19;14.76;93576.47;5091828;28;20019;-50
2021/09/14 11:54:36;;;;;;;26.83;25.50;;;;;;;35.08;15.12;93587.69;5091422;28;20016;-47
2021/09/14 11:57:03;;;;;;;37.70;35.80;;;;;;;34.07;16.34;93581.25;5091617;28;20043;-48
2021/09/14 11:59:32;;;;;;;40.75;38.22;;;;;;;33.61;16.88;93580.84;5091208;28;20539;-47
2021/09/14 12:01:59;;;;;;;39.35;37.15;;;;;;;33.76;17.14;93582.41;5090004;28;20119;-47
2021/09/14 12:04:25;;;;;;;34.28;32.42;;;;;;;33.93;16.85;93572.53;5091631;28;20020;-46